Pays
Station

 

Conditions  météo  pour  Oslo/Gardermoen  -  Norvège    Norvège

  
16 °C
    
 
 

METAR pour Oslo/Gardermoen :

ENGM 161950Z 18016KT 8000 -SHRA SCT011 BKN013 16/15 Q1006 TEMPO 4000 RADZ

 

Voici le bulletin pour Oslo/Gardermoen - Norvège.
 
Le bulletin a été fait il y a 14 minutes, à 19:50 UTC .
Le vent soufflait à la vitesse de 8.2 mètres par seconde de Sud (180°).
 
La température était de 16 °C, avec un point de rosée à 15 °C.
La pression atmosphérique était de 1006 hPa.
L'humidité relative était de 93.8%.
 
Il y avait 3 à 4/8ème de nébulosité à une hauteur de 335 mètres et 5 à 7/8ème de nébulosité à une hauteur de 396 mètres.
 
La visibilité globale était de 8.0 kilomètres.
 
Actuellement averses de léger/legère pluie.

 
 
 

Pays :   A   B   C   D   E   F   G   H   I   J   K   L   M   N   O   P   Q   R   S   T   U   V   W   Y   Z

 

Partenaires :  Info Météo avec Met'info
Météo Marine avec MeteoMarine.net
Infos Site  |  Infos Légales  |  Crédits  |  Confidentialité
Contactez-nous  |  Ajouter aux favoris
© 2013-2018 METAR - Tous droits réservés